sensor_id;sensor_type;location;lat;lon;timestamp;temperature;humidity
21193;DHT22;10754;51.106;7.164;2022-07-29T00:02:26;23.00;99.90
21193;DHT22;10754;51.106;7.164;2022-07-29T00:04:51;22.90;99.90
21193;DHT22;10754;51.106;7.164;2022-07-29T00:07:17;22.90;99.90
21193;DHT22;10754;51.106;7.164;2022-07-29T00:09:42;22.90;99.90
21193;DHT22;10754;51.106;7.164;2022-07-29T00:12:08;22.90;99.90
21193;DHT22;10754;51.106;7.164;2022-07-29T00:14:34;22.90;99.90
21193;DHT22;10754;51.106;7.164;2022-07-29T00:17:00;22.90;99.90
21193;DHT22;10754;51.106;7.164;2022-07-29T00:19:25;22.90;99.90
21193;DHT22;10754;51.106;7.164;2022-07-29T00:21:50;22.90;99.90
21193;DHT22;10754;51.106;7.164;2022-07-29T00:24:16;22.90;99.90
21193;DHT22;10754;51.106;7.164;2022-07-29T00:26:41;22.90;99.90
21193;DHT22;10754;51.106;7.164;2022-07-29T00:29:07;22.90;99.90
21193;DHT22;10754;51.106;7.164;2022-07-29T00:31:33;22.90;99.90
21193;DHT22;10754;51.106;7.164;2022-07-29T00:33:58;22.90;99.90
21193;DHT22;10754;51.106;7.164;2022-07-29T00:36:24;22.90;99.90
21193;DHT22;10754;51.106;7.164;2022-07-29T00:38:50;22.90;99.90
21193;DHT22;10754;51.106;7.164;2022-07-29T00:41:17;22.90;99.90
21193;DHT22;10754;51.106;7.164;2022-07-29T00:43:43;22.90;99.90
21193;DHT22;10754;51.106;7.164;2022-07-29T00:46:09;22.80;99.90
21193;DHT22;10754;51.106;7.164;2022-07-29T00:48:35;22.90;99.90
21193;DHT22;10754;51.106;7.164;2022-07-29T00:51:02;22.90;99.90
21193;DHT22;10754;51.106;7.164;2022-07-29T00:53:28;22.90;99.90
21193;DHT22;10754;51.106;7.164;2022-07-29T00:55:54;22.90;99.90
21193;DHT22;10754;51.106;7.164;2022-07-29T00:58:21;22.80;99.90
21193;DHT22;10754;51.106;7.164;2022-07-29T01:00:46;22.90;99.90
21193;DHT22;10754;51.106;7.164;2022-07-29T01:03:12;22.80;99.90
21193;DHT22;10754;51.106;7.164;2022-07-29T01:05:38;22.90;99.90
21193;DHT22;10754;51.106;7.164;2022-07-29T01:08:05;22.80;99.90
21193;DHT22;10754;51.106;7.164;2022-07-29T01:10:31;22.80;99.90
21193;DHT22;10754;51.106;7.164;2022-07-29T01:12:58;22.70;99.90
21193;DHT22;10754;51.106;7.164;2022-07-29T01:15:25;22.70;99.90
21193;DHT22;10754;51.106;7.164;2022-07-29T01:20:55;22.80;99.90
21193;DHT22;10754;51.106;7.164;2022-07-29T01:29:16;22.80;99.90
21193;DHT22;10754;51.106;7.164;2022-07-29T01:31:47;22.70;99.90
21193;DHT22;10754;51.106;7.164;2022-07-29T01:34:50;22.70;99.90
21193;DHT22;10754;51.106;7.164;2022-07-29T01:37:39;22.70;99.90
21193;DHT22;10754;51.106;7.164;2022-07-29T01:40:34;22.60;99.90
21193;DHT22;10754;51.106;7.164;2022-07-29T01:43:00;22.50;99.90
21193;DHT22;10754;51.106;7.164;2022-07-29T01:45:40;22.50;99.90
21193;DHT22;10754;51.106;7.164;2022-07-29T01:48:18;22.60;99.90
21193;DHT22;10754;51.106;7.164;2022-07-29T01:50:50;22.60;99.90
21193;DHT22;10754;51.106;7.164;2022-07-29T01:53:29;22.50;99.90
21193;DHT22;10754;51.106;7.164;2022-07-29T01:55:57;22.60;99.90
21193;DHT22;10754;51.106;7.164;2022-07-29T01:58:26;22.60;99.90
21193;DHT22;10754;51.106;7.164;2022-07-29T02:00:53;22.50;99.90
21193;DHT22;10754;51.106;7.164;2022-07-29T02:03:21;22.50;99.90
21193;DHT22;10754;51.106;7.164;2022-07-29T02:05:48;22.50;99.90
21193;DHT22;10754;51.106;7.164;2022-07-29T02:08:16;22.50;99.90
21193;DHT22;10754;51.106;7.164;2022-07-29T02:10:44;22.40;99.90
21193;DHT22;10754;51.106;7.164;2022-07-29T02:13:11;22.40;99.90
21193;DHT22;10754;51.106;7.164;2022-07-29T02:15:38;22.50;99.90
21193;DHT22;10754;51.106;7.164;2022-07-29T02:18:07;22.50;99.90
21193;DHT22;10754;51.106;7.164;2022-07-29T02:20:34;22.50;99.90
21193;DHT22;10754;51.106;7.164;2022-07-29T02:23:02;22.40;99.90
21193;DHT22;10754;51.106;7.164;2022-07-29T02:25:28;22.50;99.90
21193;DHT22;10754;51.106;7.164;2022-07-29T02:27:55;22.40;99.90
21193;DHT22;10754;51.106;7.164;2022-07-29T02:30:22;22.40;99.90
21193;DHT22;10754;51.106;7.164;2022-07-29T02:32:48;22.40;99.90
21193;DHT22;10754;51.106;7.164;2022-07-29T02:35:16;22.40;99.90
21193;DHT22;10754;51.106;7.164;2022-07-29T02:37:43;22.30;99.90
21193;DHT22;10754;51.106;7.164;2022-07-29T02:40:13;22.30;99.90
21193;DHT22;10754;51.106;7.164;2022-07-29T02:42:42;22.40;99.90
21193;DHT22;10754;51.106;7.164;2022-07-29T02:45:09;22.20;99.90
21193;DHT22;10754;51.106;7.164;2022-07-29T02:47:39;22.30;99.90
21193;DHT22;10754;51.106;7.164;2022-07-29T02:50:11;22.20;99.90
21193;DHT22;10754;51.106;7.164;2022-07-29T02:55:29;22.30;99.90
21193;DHT22;10754;51.106;7.164;2022-07-29T02:58:29;22.30;99.90
21193;DHT22;10754;51.106;7.164;2022-07-29T03:00:49;22.20;99.90
21193;DHT22;10754;51.106;7.164;2022-07-29T03:03:18;22.20;99.90
21193;DHT22;10754;51.106;7.164;2022-07-29T03:05:44;22.30;99.90
21193;DHT22;10754;51.106;7.164;2022-07-29T03:08:11;22.30;99.90
21193;DHT22;10754;51.106;7.164;2022-07-29T03:10:39;22.30;99.90
21193;DHT22;10754;51.106;7.164;2022-07-29T03:13:06;22.30;99.90
21193;DHT22;10754;51.106;7.164;2022-07-29T03:15:33;22.20;99.90
21193;DHT22;10754;51.106;7.164;2022-07-29T03:17:59;22.20;99.90
21193;DHT22;10754;51.106;7.164;2022-07-29T03:20:25;22.20;99.90
21193;DHT22;10754;51.106;7.164;2022-07-29T03:22:51;22.20;99.90
21193;DHT22;10754;51.106;7.164;2022-07-29T03:25:18;22.20;99.90
21193;DHT22;10754;51.106;7.164;2022-07-29T03:27:45;22.10;99.90
21193;DHT22;10754;51.106;7.164;2022-07-29T03:30:12;22.10;99.90
21193;DHT22;10754;51.106;7.164;2022-07-29T03:32:38;22.00;99.90
21193;DHT22;10754;51.106;7.164;2022-07-29T03:35:05;22.00;99.90
21193;DHT22;10754;51.106;7.164;2022-07-29T03:37:30;22.10;99.90
21193;DHT22;10754;51.106;7.164;2022-07-29T03:39:57;22.10;99.90
21193;DHT22;10754;51.106;7.164;2022-07-29T03:42:25;22.10;99.90
21193;DHT22;10754;51.106;7.164;2022-07-29T03:44:52;22.10;99.90
21193;DHT22;10754;51.106;7.164;2022-07-29T03:47:22;22.10;99.90
21193;DHT22;10754;51.106;7.164;2022-07-29T03:49:50;22.10;99.90
21193;DHT22;10754;51.106;7.164;2022-07-29T03:52:17;22.10;99.90
21193;DHT22;10754;51.106;7.164;2022-07-29T03:54:43;22.10;99.90
21193;DHT22;10754;51.106;7.164;2022-07-29T03:57:11;22.10;99.90
21193;DHT22;10754;51.106;7.164;2022-07-29T03:59:37;22.10;99.90
21193;DHT22;10754;51.106;7.164;2022-07-29T04:02:04;22.00;99.90
21193;DHT22;10754;51.106;7.164;2022-07-29T04:04:33;22.10;99.90
21193;DHT22;10754;51.106;7.164;2022-07-29T04:06:59;22.00;99.90
21193;DHT22;10754;51.106;7.164;2022-07-29T04:09:24;22.00;99.90
21193;DHT22;10754;51.106;7.164;2022-07-29T04:11:50;22.10;99.90
21193;DHT22;10754;51.106;7.164;2022-07-29T04:14:16;22.10;99.90
21193;DHT22;10754;51.106;7.164;2022-07-29T04:16:41;22.10;99.90
21193;DHT22;10754;51.106;7.164;2022-07-29T04:19:07;22.00;99.90
21193;DHT22;10754;51.106;7.164;2022-07-29T04:21:40;21.90;99.90
21193;DHT22;10754;51.106;7.164;2022-07-29T04:24:06;22.00;99.90
21193;DHT22;10754;51.106;7.164;2022-07-29T04:26:32;22.00;99.90
21193;DHT22;10754;51.106;7.164;2022-07-29T04:28:58;22.00;99.90
21193;DHT22;10754;51.106;7.164;2022-07-29T04:31:24;22.00;99.90
21193;DHT22;10754;51.106;7.164;2022-07-29T04:33:49;22.00;99.90
21193;DHT22;10754;51.106;7.164;2022-07-29T04:36:15;22.00;99.90
21193;DHT22;10754;51.106;7.164;2022-07-29T04:38:40;22.00;99.90
21193;DHT22;10754;51.106;7.164;2022-07-29T04:41:06;22.00;99.90
21193;DHT22;10754;51.106;7.164;2022-07-29T04:43:34;21.90;99.90
21193;DHT22;10754;51.106;7.164;2022-07-29T04:45:59;21.90;99.90
21193;DHT22;10754;51.106;7.164;2022-07-29T04:48:25;21.90;99.90
21193;DHT22;10754;51.106;7.164;2022-07-29T04:50:51;21.90;99.90
21193;DHT22;10754;51.106;7.164;2022-07-29T04:53:17;21.90;99.90
21193;DHT22;10754;51.106;7.164;2022-07-29T04:55:43;21.90;99.90
21193;DHT22;10754;51.106;7.164;2022-07-29T04:58:10;21.90;99.90
21193;DHT22;10754;51.106;7.164;2022-07-29T05:00:36;21.90;99.90
21193;DHT22;10754;51.106;7.164;2022-07-29T05:03:01;22.00;99.90
21193;DHT22;10754;51.106;7.164;2022-07-29T05:05:27;22.00;99.90
21193;DHT22;10754;51.106;7.164;2022-07-29T05:07:52;22.00;99.90
21193;DHT22;10754;51.106;7.164;2022-07-29T05:10:18;22.00;99.90
21193;DHT22;10754;51.106;7.164;2022-07-29T05:12:44;22.00;99.90
21193;DHT22;10754;51.106;7.164;2022-07-29T05:15:09;22.00;99.90
21193;DHT22;10754;51.106;7.164;2022-07-29T05:17:35;22.00;99.90
21193;DHT22;10754;51.106;7.164;2022-07-29T05:20:00;22.10;99.90
21193;DHT22;10754;51.106;7.164;2022-07-29T05:22:26;22.10;99.90
21193;DHT22;10754;51.106;7.164;2022-07-29T05:24:51;22.10;99.90
21193;DHT22;10754;51.106;7.164;2022-07-29T05:27:17;22.00;99.90
21193;DHT22;10754;51.106;7.164;2022-07-29T05:29:42;22.10;99.90
21193;DHT22;10754;51.106;7.164;2022-07-29T05:32:08;22.10;99.90
21193;DHT22;10754;51.106;7.164;2022-07-29T05:34:34;22.10;99.90
21193;DHT22;10754;51.106;7.164;2022-07-29T05:36:59;22.10;99.90
21193;DHT22;10754;51.106;7.164;2022-07-29T05:39:25;22.10;99.90
21193;DHT22;10754;51.106;7.164;2022-07-29T05:41:50;22.20;99.90
21193;DHT22;10754;51.106;7.164;2022-07-29T05:44:16;22.20;99.90
21193;DHT22;10754;51.106;7.164;2022-07-29T05:46:42;22.20;99.90
21193;DHT22;10754;51.106;7.164;2022-07-29T05:49:07;22.20;99.90
21193;DHT22;10754;51.106;7.164;2022-07-29T05:51:33;22.20;99.90
21193;DHT22;10754;51.106;7.164;2022-07-29T05:53:59;22.20;99.90
21193;DHT22;10754;51.106;7.164;2022-07-29T05:56:25;22.20;99.90
21193;DHT22;10754;51.106;7.164;2022-07-29T05:58:51;22.30;99.90
21193;DHT22;10754;51.106;7.164;2022-07-29T06:01:16;22.30;99.90
21193;DHT22;10754;51.106;7.164;2022-07-29T06:03:42;22.30;99.90
21193;DHT22;10754;51.106;7.164;2022-07-29T06:06:08;22.30;99.90
21193;DHT22;10754;51.106;7.164;2022-07-29T06:08:34;22.30;99.90
21193;DHT22;10754;51.106;7.164;2022-07-29T06:11:00;22.30;99.90
21193;DHT22;10754;51.106;7.164;2022-07-29T06:13:26;22.40;99.90
21193;DHT22;10754;51.106;7.164;2022-07-29T06:15:51;22.40;99.90
21193;DHT22;10754;51.106;7.164;2022-07-29T06:18:17;22.40;99.90
21193;DHT22;10754;51.106;7.164;2022-07-29T06:20:43;22.40;99.90
21193;DHT22;10754;51.106;7.164;2022-07-29T06:23:08;22.40;99.90
21193;DHT22;10754;51.106;7.164;2022-07-29T06:25:35;22.50;99.90
21193;DHT22;10754;51.106;7.164;2022-07-29T06:28:02;22.50;99.90
21193;DHT22;10754;51.106;7.164;2022-07-29T06:30:27;22.60;99.90
21193;DHT22;10754;51.106;7.164;2022-07-29T06:32:54;22.60;99.90
21193;DHT22;10754;51.106;7.164;2022-07-29T06:35:20;22.70;99.90
21193;DHT22;10754;51.106;7.164;2022-07-29T06:37:45;22.80;99.90
21193;DHT22;10754;51.106;7.164;2022-07-29T06:40:11;22.80;99.90
21193;DHT22;10754;51.106;7.164;2022-07-29T06:42:55;22.70;99.90
21193;DHT22;10754;51.106;7.164;2022-07-29T06:45:21;22.80;99.90
21193;DHT22;10754;51.106;7.164;2022-07-29T06:47:46;22.80;99.90
21193;DHT22;10754;51.106;7.164;2022-07-29T06:50:12;22.90;99.90
21193;DHT22;10754;51.106;7.164;2022-07-29T06:52:38;22.90;99.90
21193;DHT22;10754;51.106;7.164;2022-07-29T06:55:04;22.90;99.90
21193;DHT22;10754;51.106;7.164;2022-07-29T06:57:29;22.90;99.90
21193;DHT22;10754;51.106;7.164;2022-07-29T06:59:58;22.90;99.90
21193;DHT22;10754;51.106;7.164;2022-07-29T07:02:24;22.90;99.90
21193;DHT22;10754;51.106;7.164;2022-07-29T07:04:49;22.90;99.90
21193;DHT22;10754;51.106;7.164;2022-07-29T07:07:15;22.90;99.90
21193;DHT22;10754;51.106;7.164;2022-07-29T07:09:40;22.90;99.90
21193;DHT22;10754;51.106;7.164;2022-07-29T07:12:06;22.90;99.90
21193;DHT22;10754;51.106;7.164;2022-07-29T07:14:32;22.90;99.90
21193;DHT22;10754;51.106;7.164;2022-07-29T07:16:57;22.90;99.90
21193;DHT22;10754;51.106;7.164;2022-07-29T07:19:25;22.90;99.90
21193;DHT22;10754;51.106;7.164;2022-07-29T07:21:52;22.90;99.90
21193;DHT22;10754;51.106;7.164;2022-07-29T07:24:18;22.90;99.90
21193;DHT22;10754;51.106;7.164;2022-07-29T07:26:43;22.90;99.90
21193;DHT22;10754;51.106;7.164;2022-07-29T07:29:09;22.90;99.90
21193;DHT22;10754;51.106;7.164;2022-07-29T07:31:35;22.90;99.90
21193;DHT22;10754;51.106;7.164;2022-07-29T07:34:01;22.90;99.90
21193;DHT22;10754;51.106;7.164;2022-07-29T07:36:26;22.90;99.90
21193;DHT22;10754;51.106;7.164;2022-07-29T07:38:52;22.90;99.90
21193;DHT22;10754;51.106;7.164;2022-07-29T07:41:17;22.90;99.90
21193;DHT22;10754;51.106;7.164;2022-07-29T07:43:43;23.00;99.90
21193;DHT22;10754;51.106;7.164;2022-07-29T07:46:08;23.00;99.90
21193;DHT22;10754;51.106;7.164;2022-07-29T07:48:34;23.10;99.90
21193;DHT22;10754;51.106;7.164;2022-07-29T07:51:00;23.20;99.90
21193;DHT22;10754;51.106;7.164;2022-07-29T07:53:25;23.20;99.90
21193;DHT22;10754;51.106;7.164;2022-07-29T07:55:51;23.20;99.90
21193;DHT22;10754;51.106;7.164;2022-07-29T07:58:16;23.10;99.90
21193;DHT22;10754;51.106;7.164;2022-07-29T08:00:42;23.20;99.90
21193;DHT22;10754;51.106;7.164;2022-07-29T08:03:07;23.20;99.90
21193;DHT22;10754;51.106;7.164;2022-07-29T08:05:33;23.10;99.90
21193;DHT22;10754;51.106;7.164;2022-07-29T08:07:59;23.20;99.90
21193;DHT22;10754;51.106;7.164;2022-07-29T08:10:24;23.20;99.90
21193;DHT22;10754;51.106;7.164;2022-07-29T08:13:09;23.20;99.90
21193;DHT22;10754;51.106;7.164;2022-07-29T08:15:39;23.20;99.90
21193;DHT22;10754;51.106;7.164;2022-07-29T08:18:04;23.30;99.90
21193;DHT22;10754;51.106;7.164;2022-07-29T08:20:30;23.30;99.90
21193;DHT22;10754;51.106;7.164;2022-07-29T08:22:58;23.30;99.90
21193;DHT22;10754;51.106;7.164;2022-07-29T08:25:24;23.30;99.90
21193;DHT22;10754;51.106;7.164;2022-07-29T08:27:49;23.30;99.90
21193;DHT22;10754;51.106;7.164;2022-07-29T08:30:15;23.30;99.90
21193;DHT22;10754;51.106;7.164;2022-07-29T08:32:40;23.30;99.90
21193;DHT22;10754;51.106;7.164;2022-07-29T08:35:06;23.40;99.90
21193;DHT22;10754;51.106;7.164;2022-07-29T08:37:32;23.40;99.90
21193;DHT22;10754;51.106;7.164;2022-07-29T08:39:57;23.50;99.90
21193;DHT22;10754;51.106;7.164;2022-07-29T08:42:23;23.50;99.90
21193;DHT22;10754;51.106;7.164;2022-07-29T08:44:48;23.50;99.90
21193;DHT22;10754;51.106;7.164;2022-07-29T08:47:16;23.40;99.90
21193;DHT22;10754;51.106;7.164;2022-07-29T08:49:42;23.40;99.90
21193;DHT22;10754;51.106;7.164;2022-07-29T08:52:10;23.40;99.90
21193;DHT22;10754;51.106;7.164;2022-07-29T08:54:37;23.40;99.90
21193;DHT22;10754;51.106;7.164;2022-07-29T08:57:03;23.30;99.90
21193;DHT22;10754;51.106;7.164;2022-07-29T08:59:30;23.30;99.90
21193;DHT22;10754;51.106;7.164;2022-07-29T09:01:58;23.40;99.90
21193;DHT22;10754;51.106;7.164;2022-07-29T09:04:29;23.40;99.90
21193;DHT22;10754;51.106;7.164;2022-07-29T09:06:57;23.40;99.90
21193;DHT22;10754;51.106;7.164;2022-07-29T09:09:23;23.40;99.90
21193;DHT22;10754;51.106;7.164;2022-07-29T09:11:49;23.40;99.90
21193;DHT22;10754;51.106;7.164;2022-07-29T09:14:14;23.40;99.90
21193;DHT22;10754;51.106;7.164;2022-07-29T09:16:55;23.40;99.90
21193;DHT22;10754;51.106;7.164;2022-07-29T09:19:29;23.60;99.90
21193;DHT22;10754;51.106;7.164;2022-07-29T09:21:56;23.60;99.90
21193;DHT22;10754;51.106;7.164;2022-07-29T09:24:27;23.70;99.90
21193;DHT22;10754;51.106;7.164;2022-07-29T09:26:52;23.80;99.90
21193;DHT22;10754;51.106;7.164;2022-07-29T09:29:21;23.90;99.90
21193;DHT22;10754;51.106;7.164;2022-07-29T09:31:49;23.90;99.90
21193;DHT22;10754;51.106;7.164;2022-07-29T09:34:25;24.00;99.90
21193;DHT22;10754;51.106;7.164;2022-07-29T09:36:52;24.10;99.90
21193;DHT22;10754;51.106;7.164;2022-07-29T09:39:31;24.10;99.90
21193;DHT22;10754;51.106;7.164;2022-07-29T09:41:59;24.10;99.90
21193;DHT22;10754;51.106;7.164;2022-07-29T09:44:25;24.00;99.90
21193;DHT22;10754;51.106;7.164;2022-07-29T09:46:58;24.00;99.90
21193;DHT22;10754;51.106;7.164;2022-07-29T09:49:24;24.10;99.90
21193;DHT22;10754;51.106;7.164;2022-07-29T09:52:20;24.10;99.90
21193;DHT22;10754;51.106;7.164;2022-07-29T09:54:46;24.20;99.90
21193;DHT22;10754;51.106;7.164;2022-07-29T09:57:24;24.20;99.90
21193;DHT22;10754;51.106;7.164;2022-07-29T10:00:02;24.30;99.90
21193;DHT22;10754;51.106;7.164;2022-07-29T10:02:30;24.40;99.90
21193;DHT22;10754;51.106;7.164;2022-07-29T10:04:56;24.50;99.90
21193;DHT22;10754;51.106;7.164;2022-07-29T10:07:22;24.60;99.90
21193;DHT22;10754;51.106;7.164;2022-07-29T10:09:54;24.60;99.90
21193;DHT22;10754;51.106;7.164;2022-07-29T10:12:20;24.70;99.90
21193;DHT22;10754;51.106;7.164;2022-07-29T10:14:47;24.70;99.90
21193;DHT22;10754;51.106;7.164;2022-07-29T10:17:13;24.80;99.90
21193;DHT22;10754;51.106;7.164;2022-07-29T10:19:39;24.70;99.90
21193;DHT22;10754;51.106;7.164;2022-07-29T10:22:09;24.70;99.90
21193;DHT22;10754;51.106;7.164;2022-07-29T10:24:37;24.70;99.90
21193;DHT22;10754;51.106;7.164;2022-07-29T10:27:05;24.70;99.90
21193;DHT22;10754;51.106;7.164;2022-07-29T10:29:32;24.60;99.90
21193;DHT22;10754;51.106;7.164;2022-07-29T10:32:11;24.60;99.90
21193;DHT22;10754;51.106;7.164;2022-07-29T10:38:04;24.70;99.90
21193;DHT22;10754;51.106;7.164;2022-07-29T10:43:52;24.60;99.90
21193;DHT22;10754;51.106;7.164;2022-07-29T10:46:18;24.50;99.90
21193;DHT22;10754;51.106;7.164;2022-07-29T10:49:07;24.40;99.90
21193;DHT22;10754;51.106;7.164;2022-07-29T10:59:51;24.60;99.90
21193;DHT22;10754;51.106;7.164;2022-07-29T11:07:38;25.00;99.90
21193;DHT22;10754;51.106;7.164;2022-07-29T11:10:19;25.10;99.90
21193;DHT22;10754;51.106;7.164;2022-07-29T11:12:46;25.20;99.90
21193;DHT22;10754;51.106;7.164;2022-07-29T11:15:15;25.20;99.90
21193;DHT22;10754;51.106;7.164;2022-07-29T11:20:45;25.40;99.90
21193;DHT22;10754;51.106;7.164;2022-07-29T11:23:29;25.50;99.90
21193;DHT22;10754;51.106;7.164;2022-07-29T11:26:15;25.70;99.90
21193;DHT22;10754;51.106;7.164;2022-07-29T11:28:52;25.80;99.90
21193;DHT22;10754;51.106;7.164;2022-07-29T11:31:39;26.10;99.90
21193;DHT22;10754;51.106;7.164;2022-07-29T11:39:33;26.80;99.90
21193;DHT22;10754;51.106;7.164;2022-07-29T11:45:04;26.70;99.90
21193;DHT22;10754;51.106;7.164;2022-07-29T11:47:37;26.70;99.90
21193;DHT22;10754;51.106;7.164;2022-07-29T11:50:05;27.20;99.90
21193;DHT22;10754;51.106;7.164;2022-07-29T11:52:38;27.50;99.90
21193;DHT22;10754;51.106;7.164;2022-07-29T11:55:09;27.80;99.90
21193;DHT22;10754;51.106;7.164;2022-07-29T11:57:36;28.00;99.90
21193;DHT22;10754;51.106;7.164;2022-07-29T12:00:06;28.00;99.90
21193;DHT22;10754;51.106;7.164;2022-07-29T12:02:42;28.30;99.90
21193;DHT22;10754;51.106;7.164;2022-07-29T12:05:09;28.30;99.90
21193;DHT22;10754;51.106;7.164;2022-07-29T12:07:37;28.30;99.90
21193;DHT22;10754;51.106;7.164;2022-07-29T12:10:04;28.60;99.90
21193;DHT22;10754;51.106;7.164;2022-07-29T12:12:30;28.90;99.90
21193;DHT22;10754;51.106;7.164;2022-07-29T12:14:55;29.20;99.90
21193;DHT22;10754;51.106;7.164;2022-07-29T12:17:39;29.30;99.90
21193;DHT22;10754;51.106;7.164;2022-07-29T12:20:05;29.90;99.90
21193;DHT22;10754;51.106;7.164;2022-07-29T12:22:36;30.40;99.90
21193;DHT22;10754;51.106;7.164;2022-07-29T12:25:08;31.40;99.90
21193;DHT22;10754;51.106;7.164;2022-07-29T12:27:35;32.00;99.90
21193;DHT22;10754;51.106;7.164;2022-07-29T12:30:10;32.20;99.90
21193;DHT22;10754;51.106;7.164;2022-07-29T12:32:38;32.00;99.90
21193;DHT22;10754;51.106;7.164;2022-07-29T12:35:13;32.20;99.90
21193;DHT22;10754;51.106;7.164;2022-07-29T12:37:40;32.00;99.90
21193;DHT22;10754;51.106;7.164;2022-07-29T12:40:07;32.10;99.90
21193;DHT22;10754;51.106;7.164;2022-07-29T12:42:34;33.00;99.90
21193;DHT22;10754;51.106;7.164;2022-07-29T12:45:00;33.40;99.90
21193;DHT22;10754;51.106;7.164;2022-07-29T12:47:26;33.80;99.90
21193;DHT22;10754;51.106;7.164;2022-07-29T12:50:14;33.90;99.90
21193;DHT22;10754;51.106;7.164;2022-07-29T12:52:40;33.70;99.90
21193;DHT22;10754;51.106;7.164;2022-07-29T12:55:06;33.50;99.90
21193;DHT22;10754;51.106;7.164;2022-07-29T12:57:47;33.20;99.90
21193;DHT22;10754;51.106;7.164;2022-07-29T13:00:14;33.40;99.90
21193;DHT22;10754;51.106;7.164;2022-07-29T13:02:41;33.80;99.90
21193;DHT22;10754;51.106;7.164;2022-07-29T13:05:08;34.40;99.90
21193;DHT22;10754;51.106;7.164;2022-07-29T13:07:35;34.80;99.90
21193;DHT22;10754;51.106;7.164;2022-07-29T13:10:15;35.10;99.90
21193;DHT22;10754;51.106;7.164;2022-07-29T13:15:28;33.30;99.90
21193;DHT22;10754;51.106;7.164;2022-07-29T13:17:54;33.30;99.90
21193;DHT22;10754;51.106;7.164;2022-07-29T13:20:23;33.50;99.90
21193;DHT22;10754;51.106;7.164;2022-07-29T13:22:50;33.90;99.90
21193;DHT22;10754;51.106;7.164;2022-07-29T13:25:24;34.40;99.90
21193;DHT22;10754;51.106;7.164;2022-07-29T13:27:49;34.30;99.90
21193;DHT22;10754;51.106;7.164;2022-07-29T13:30:15;34.50;99.90
21193;DHT22;10754;51.106;7.164;2022-07-29T13:32:40;34.30;99.90
21193;DHT22;10754;51.106;7.164;2022-07-29T13:35:08;34.10;99.90
21193;DHT22;10754;51.106;7.164;2022-07-29T13:37:35;34.10;99.90
21193;DHT22;10754;51.106;7.164;2022-07-29T13:40:04;34.00;99.90
21193;DHT22;10754;51.106;7.164;2022-07-29T13:42:31;34.00;99.90
21193;DHT22;10754;51.106;7.164;2022-07-29T13:44:56;33.80;99.90
21193;DHT22;10754;51.106;7.164;2022-07-29T13:47:22;33.60;99.90
21193;DHT22;10754;51.106;7.164;2022-07-29T13:49:48;33.50;99.90
21193;DHT22;10754;51.106;7.164;2022-07-29T13:52:14;33.50;99.90
21193;DHT22;10754;51.106;7.164;2022-07-29T13:54:39;33.80;99.90
21193;DHT22;10754;51.106;7.164;2022-07-29T13:57:05;33.80;99.90
21193;DHT22;10754;51.106;7.164;2022-07-29T13:59:31;33.30;99.90
21193;DHT22;10754;51.106;7.164;2022-07-29T14:01:56;33.10;99.90
21193;DHT22;10754;51.106;7.164;2022-07-29T14:04:22;33.40;99.90
21193;DHT22;10754;51.106;7.164;2022-07-29T14:06:51;33.20;99.90
21193;DHT22;10754;51.106;7.164;2022-07-29T14:09:17;32.70;99.90
21193;DHT22;10754;51.106;7.164;2022-07-29T14:11:42;32.50;99.90
21193;DHT22;10754;51.106;7.164;2022-07-29T14:14:08;32.30;99.90
21193;DHT22;10754;51.106;7.164;2022-07-29T14:16:35;31.90;99.90
21193;DHT22;10754;51.106;7.164;2022-07-29T14:19:02;31.70;99.90
21193;DHT22;10754;51.106;7.164;2022-07-29T14:21:28;31.50;99.90
21193;DHT22;10754;51.106;7.164;2022-07-29T14:23:53;31.40;99.90
21193;DHT22;10754;51.106;7.164;2022-07-29T14:26:20;31.70;99.90
21193;DHT22;10754;51.106;7.164;2022-07-29T14:28:47;32.00;99.90
21193;DHT22;10754;51.106;7.164;2022-07-29T14:31:12;31.70;99.90
21193;DHT22;10754;51.106;7.164;2022-07-29T14:33:38;31.40;99.90
21193;DHT22;10754;51.106;7.164;2022-07-29T14:36:03;31.10;99.90
21193;DHT22;10754;51.106;7.164;2022-07-29T14:38:29;31.00;99.90
21193;DHT22;10754;51.106;7.164;2022-07-29T14:40:54;30.80;99.90
21193;DHT22;10754;51.106;7.164;2022-07-29T14:43:20;30.50;99.90
21193;DHT22;10754;51.106;7.164;2022-07-29T14:45:46;30.40;99.90
21193;DHT22;10754;51.106;7.164;2022-07-29T14:48:11;30.30;99.90
21193;DHT22;10754;51.106;7.164;2022-07-29T14:50:37;30.20;99.90
21193;DHT22;10754;51.106;7.164;2022-07-29T14:53:03;30.20;99.90
21193;DHT22;10754;51.106;7.164;2022-07-29T14:55:28;30.00;99.90
21193;DHT22;10754;51.106;7.164;2022-07-29T14:57:54;29.90;99.90
21193;DHT22;10754;51.106;7.164;2022-07-29T15:00:20;29.80;99.90
21193;DHT22;10754;51.106;7.164;2022-07-29T15:02:46;29.80;99.90
21193;DHT22;10754;51.106;7.164;2022-07-29T15:05:12;29.60;99.90
21193;DHT22;10754;51.106;7.164;2022-07-29T15:07:38;29.60;99.90
21193;DHT22;10754;51.106;7.164;2022-07-29T15:10:04;29.50;99.90
21193;DHT22;10754;51.106;7.164;2022-07-29T15:12:31;29.30;99.90
21193;DHT22;10754;51.106;7.164;2022-07-29T15:14:57;29.20;99.90
21193;DHT22;10754;51.106;7.164;2022-07-29T15:17:22;29.20;99.90
21193;DHT22;10754;51.106;7.164;2022-07-29T15:19:48;29.00;99.90
21193;DHT22;10754;51.106;7.164;2022-07-29T15:22:13;28.90;99.90
21193;DHT22;10754;51.106;7.164;2022-07-29T15:24:39;28.90;99.90
21193;DHT22;10754;51.106;7.164;2022-07-29T15:27:04;28.80;99.90
21193;DHT22;10754;51.106;7.164;2022-07-29T15:29:30;28.60;99.90
21193;DHT22;10754;51.106;7.164;2022-07-29T15:31:55;28.50;99.90
21193;DHT22;10754;51.106;7.164;2022-07-29T15:34:21;28.50;99.90
21193;DHT22;10754;51.106;7.164;2022-07-29T15:36:49;28.50;99.90
21193;DHT22;10754;51.106;7.164;2022-07-29T15:39:15;28.30;99.90
21193;DHT22;10754;51.106;7.164;2022-07-29T15:41:41;28.40;99.90
21193;DHT22;10754;51.106;7.164;2022-07-29T15:44:06;28.30;99.90
21193;DHT22;10754;51.106;7.164;2022-07-29T15:46:32;28.20;99.90
21193;DHT22;10754;51.106;7.164;2022-07-29T15:49:16;28.20;99.90
21193;DHT22;10754;51.106;7.164;2022-07-29T15:51:41;28.10;99.90
21193;DHT22;10754;51.106;7.164;2022-07-29T15:54:07;28.00;99.90
21193;DHT22;10754;51.106;7.164;2022-07-29T15:56:32;27.80;99.90
21193;DHT22;10754;51.106;7.164;2022-07-29T15:58:58;27.90;99.90
21193;DHT22;10754;51.106;7.164;2022-07-29T16:01:23;27.90;99.90
21193;DHT22;10754;51.106;7.164;2022-07-29T16:03:49;27.80;99.90
21193;DHT22;10754;51.106;7.164;2022-07-29T16:06:15;27.70;99.90
21193;DHT22;10754;51.106;7.164;2022-07-29T16:08:42;27.70;99.90
21193;DHT22;10754;51.106;7.164;2022-07-29T16:11:08;27.60;99.90
21193;DHT22;10754;51.106;7.164;2022-07-29T16:13:33;27.60;99.90
21193;DHT22;10754;51.106;7.164;2022-07-29T16:15:59;27.60;99.90
21193;DHT22;10754;51.106;7.164;2022-07-29T16:18:24;27.60;99.90
21193;DHT22;10754;51.106;7.164;2022-07-29T16:20:50;27.50;99.90